Gallipoli Flying Field

IT-0473 · Apulia, Włochy

Historia METAR IT-0473 · Gallipoli Flying Field

Poniżej widzisz METAR-y z ostatnich kilku dni. Wybierz rok, aby przeglądać starsze METAR-y, począwszy od roku 2007.

22 lipca 2024

Czas Kod Pogoda Temp. Widoczność Sufit Wiatr METAR/SPECI
17:55
V
32 °C 10 km+ - 040° 040° 5 kt METAR LIBN 221555Z 04005KT 9999 FEW040 32/22 Q1009
16:55
V
33 °C 10 km+ - 070° 070° 7 kt METAR LIBN 221455Z 07007KT 9999 FEW040 33/23 Q1009
15:55
V
33 °C 10 km+ - 070° 070° 8 kt METAR LIBN 221355Z 07008KT 9999 FEW040 33/22 Q1010
14:55
V
34 °C 10 km+ - 050° 050° 9 kt METAR LIBN 221255Z 05009KT 9999 FEW040 34/23 Q1010
13:55
V
35 °C 10 km+ - 030° 030° 9 kt METAR LIBN 221155Z 03009KT 9999 FEW040 35/25 Q1010
12:55
V
35 °C 10 km+ - 230° 230° 7 kt METAR LIBN 221055Z 23007KT 9999 FEW040 35/23 Q1009
11:55
V
35 °C 10 km+ - 300° 300° 5 kt METAR LIBN 220955Z 30005KT 9999 FEW040 35/22 Q1010
10:55
V
33 °C 10 km+ - 010° 010° 4 kt METAR LIBN 220855Z 01004KT 210V030 CAVOK 33/24 Q1010
09:55
V
32 °C 10 km+ - 250° 250° 5 kt METAR LIBN 220755Z 25005KT CAVOK 32/25 Q1010
08:55
V
30 °C 10 km+ - 280° 280° 4 kt METAR LIBN 220655Z 28004KT CAVOK 30/25 Q1010
07:55
V
29 °C 10 km+ - Var Var 2 kt METAR LIBN 220555Z VRB02KT CAVOK 29/26 Q1010
06:55
V
26 °C 10 km+ - Var Var 1 kt METAR LIBN 220455Z VRB01KT CAVOK 26/24 Q1009
05:55
V
25 °C 10 km+ - 080° 080° 3 kt METAR LIBN 220355Z 08003KT CAVOK 25/24 Q1009
04:55
V
25 °C 10 km+ - Var Var 1 kt METAR LIBN 220255Z VRB01KT CAVOK 25/24 Q1009
03:55
V
25 °C 10 km+ - Var Var 1 kt METAR LIBN 220155Z VRB01KT CAVOK 25/24 Q1009
02:55
V
26 °C 10 km+ - Var Var 1 kt METAR LIBN 220055Z VRB01KT CAVOK 26/24 Q1010
01:55
V
26 °C 10 km+ - Var Var 1 kt METAR LIBN 212355Z VRB01KT CAVOK 26/25 Q1010
00:55
V
27 °C 10 km+ - 110° 110° 2 kt METAR LIBN 212255Z 11002KT CAVOK 27/24 Q1009

21 lipca 2024

Czas Kod Pogoda Temp. Widoczność Sufit Wiatr METAR/SPECI
23:55
V
28 °C 10 km+ - 270° 270° 2 kt METAR LIBN 212155Z 27002KT CAVOK 28/26 Q1009
22:55
V
28 °C 10 km+ - Var Var 1 kt METAR LIBN 212055Z VRB01KT CAVOK 28/25 Q1009
21:55
V
29 °C 10 km+ - 080° 080° 2 kt METAR LIBN 211955Z 08002KT CAVOK 29/25 Q1009
20:55
V
30 °C 10 km+ - 030° 030° 4 kt METAR LIBN 211855Z 03004KT CAVOK 30/25 Q1009 RMK FEW FEW100 VIS MIN 9999 WIND THR14 05005KT WIND THR32 05003KT BLU
19:55
V
31 °C 10 km+ - 040° 040° 5 kt METAR LIBN 211755Z 04005KT CAVOK 31/25 Q1009
18:55
V
32 °C 10 km+ - 030° 030° 7 kt METAR LIBN 211655Z 03007KT 9999 FEW035 32/24 Q1009
17:55
V
33 °C 10 km+ - 020° 020° 8 kt METAR LIBN 211555Z 02008KT 9999 FEW035 33/24 Q1009
16:55
V
33 °C 10 km+ - 030° 030° 9 kt METAR LIBN 211455Z 03009KT 9999 FEW035 33/25 Q1009
15:55
V
33 °C 10 km+ - 030° 030° 9 kt METAR LIBN 211355Z 03009KT 9999 FEW035 33/25 Q1009
14:55
V
34 °C 10 km+ - 030° 030° 12 kt METAR LIBN 211255Z 03012KT 9999 FEW030 34/24 Q1008
13:55
V
34 °C 10 km+ - 040° 040° 7 kt METAR LIBN 211155Z 04007KT 9999 SCT030 34/24 Q1008
12:55
V
34 °C 10 km+ - 030° 030° 7 kt METAR LIBN 211055Z 03007KT 9999 SCT030 34/24 Q1009
11:55
V
34 °C 10 km+ - 030° 030° 7 kt METAR LIBN 210955Z 03007KT 9999 FEW030 34/24 Q1009
10:55
V
33 °C 10 km+ - 010° 010° 9 kt METAR LIBN 210855Z 01009KT 9999 FEW030 33/26 Q1009 RMK FEW VIS MIN 9999 WIND THR14 35008KT WIND THR32 03009KT BLU
09:55
V
32 °C 10 km+ - 020° 020° 10 kt METAR LIBN 210755Z 02010KT 9999 FEW025 32/25 Q1009
08:55
V
31 °C 10 km+ - 030° 030° 10 kt METAR LIBN 210655Z 03010KT 9999 FEW025 31/25 Q1009
07:55
V
29 °C 10 km+ - 020° 020° 8 kt METAR LIBN 210555Z 02008KT 9999 SCT015 29/27 Q1008
06:55
V
28 °C 10 km+ - 020° 020° 6 kt METAR LIBN 210455Z 02006KT CAVOK 28/27 Q1008
05:55
V
28 °C 10 km+ - 020° 020° 4 kt METAR LIBN 210355Z 02004KT CAVOK 28/27 Q1008
04:55
V
28 °C 10 km+ - 010° 010° 6 kt METAR LIBN 210255Z 01006KT CAVOK 28/27 Q1008
03:55
V
28 °C 10 km+ - 010° 010° 4 kt METAR LIBN 210155Z 01004KT CAVOK 28/27 Q1008
02:55
V
28 °C 10 km+ - 030° 030° 5 kt METAR LIBN 210055Z 03005KT CAVOK 28/27 Q1008 RMK SKC VIS MIN 9999 WIND THR14 03004KT WIND THR32 03004KT BLU
01:55
V
28 °C 10 km+ - 020° 020° 5 kt METAR LIBN 202355Z 02005KT CAVOK 28/27 Q1008
00:55
V
27 °C 10 km+ - Var Var 1 kt METAR LIBN 202255Z VRB01KT CAVOK 27/20 Q1008

20 lipca 2024

Czas Kod Pogoda Temp. Widoczność Sufit Wiatr METAR/SPECI
23:55
V
29 °C 10 km+ - 060° 060° 2 kt METAR LIBN 202155Z 06002KT CAVOK 29/22 Q1008
22:55
V
29 °C 10 km+ - 330° 330° 3 kt METAR LIBN 202055Z 33003KT CAVOK 29/22 Q1008
21:55
V
30 °C 10 km+ - 320° 320° 4 kt METAR LIBN 201955Z 32004KT CAVOK 30/22 Q1007
20:55
V
30 °C 10 km+ - 300° 300° 4 kt METAR LIBN 201855Z 30004KT CAVOK 30/20 Q1007
19:55
V
34 °C 10 km+ - 250° 250° 4 kt METAR LIBN 201755Z 25004KT CAVOK 34/18 Q1007
18:55
V
35 °C 10 km+ - 240° 240° 9 kt METAR LIBN 201655Z 24009KT CAVOK 35/17 Q1007
17:55
V
36 °C 10 km+ - 240° 240° 9 kt METAR LIBN 201555Z 24009KT CAVOK 36/18 Q1007
16:55
V
37 °C 10 km+ - 040° 040° 8 kt METAR LIBN 201455Z 04008KT 9999 FEW025 37/19 Q1007
15:55
V
37 °C 10 km+ - 040° 040° 9 kt METAR LIBN 201355Z 04009KT 9999 FEW025 37/20 Q1008 RMK FEW VIS MIN 9999 WIND THR14 05009KT WIND THR32 08010KT BLU
14:55
V
38 °C 10 km+ - 060° 060° 7 kt METAR LIBN 201255Z 06007KT 9999 FEW025 38/20 Q1008
13:55
V
37 °C 10 km+ - 020° 020° 7 kt METAR LIBN 201155Z 02007KT CAVOK 37/20 Q1008 RMK SKC VIS MIN 9999 WIND THR14 03006KT WIND THR32 04007KT BLU
12:55
V
37 °C 10 km+ - 360° 360° 7 kt METAR LIBN 201055Z 36007KT CAVOK 37/20 Q1009
11:55
V
36 °C 10 km+ - 350° 350° 7 kt METAR LIBN 200955Z 35007KT CAVOK 36/20 Q1009
10:55
V
35 °C 10 km+ - 010° 010° 7 kt METAR LIBN 200855Z 01007KT CAVOK 35/20 Q1009
09:55
V
34 °C 10 km+ - 010° 010° 7 kt METAR LIBN 200755Z 01007KT CAVOK 34/20 Q1009
08:55
V
33 °C 10 km+ - 030° 030° 8 kt METAR LIBN 200655Z 03008KT CAVOK 33/21 Q1009
07:55
V
30 °C 10 km+ - 020° 020° 7 kt METAR LIBN 200555Z 02007KT CAVOK 30/24 Q1009
Zgłoś zmianę